sensor_id;sensor_type;location;lat;lon;timestamp;P1;durP1;ratioP1;P2;durP2;ratioP2
55465;SDS011;41329;41.594;23.810;2022-07-01T00:00:26;6.43;;;5.93;;
55465;SDS011;41329;41.594;23.810;2022-07-01T00:02:51;5.90;;;5.50;;
55465;SDS011;41329;41.594;23.810;2022-07-01T00:05:17;5.72;;;5.10;;
55465;SDS011;41329;41.594;23.810;2022-07-01T00:07:43;6.53;;;6.13;;
55465;SDS011;41329;41.594;23.810;2022-07-01T00:10:08;6.20;;;5.90;;
55465;SDS011;41329;41.594;23.810;2022-07-01T00:12:34;5.82;;;5.53;;
55465;SDS011;41329;41.594;23.810;2022-07-01T00:14:59;5.40;;;5.10;;
55465;SDS011;41329;41.594;23.810;2022-07-01T00:17:25;7.38;;;6.78;;
55465;SDS011;41329;41.594;23.810;2022-07-01T00:19:50;6.25;;;5.82;;
55465;SDS011;41329;41.594;23.810;2022-07-01T00:22:16;6.22;;;5.72;;
55465;SDS011;41329;41.594;23.810;2022-07-01T00:24:41;6.97;;;6.47;;
55465;SDS011;41329;41.594;23.810;2022-07-01T00:27:07;6.68;;;6.00;;
55465;SDS011;41329;41.594;23.810;2022-07-01T00:29:33;5.90;;;5.53;;
55465;SDS011;41329;41.594;23.810;2022-07-01T00:31:59;7.45;;;5.85;;
55465;SDS011;41329;41.594;23.810;2022-07-01T00:34:24;5.97;;;5.60;;
55465;SDS011;41329;41.594;23.810;2022-07-01T00:36:50;5.95;;;5.55;;
55465;SDS011;41329;41.594;23.810;2022-07-01T00:39:15;6.28;;;5.43;;
55465;SDS011;41329;41.594;23.810;2022-07-01T00:41:41;6.28;;;5.63;;
55465;SDS011;41329;41.594;23.810;2022-07-01T00:44:15;5.65;;;5.22;;
55465;SDS011;41329;41.594;23.810;2022-07-01T00:46:42;7.22;;;6.70;;
55465;SDS011;41329;41.594;23.810;2022-07-01T00:49:07;6.85;;;6.45;;
55465;SDS011;41329;41.594;23.810;2022-07-01T00:51:33;7.10;;;6.60;;
55465;SDS011;41329;41.594;23.810;2022-07-01T00:53:58;6.55;;;6.07;;
55465;SDS011;41329;41.594;23.810;2022-07-01T00:56:26;6.78;;;6.32;;
55465;SDS011;41329;41.594;23.810;2022-07-01T00:58:52;6.50;;;6.00;;
55465;SDS011;41329;41.594;23.810;2022-07-01T01:01:17;5.97;;;5.50;;
55465;SDS011;41329;41.594;23.810;2022-07-01T01:03:43;7.00;;;5.45;;
55465;SDS011;41329;41.594;23.810;2022-07-01T01:06:09;6.13;;;5.72;;
55465;SDS011;41329;41.594;23.810;2022-07-01T01:08:35;5.95;;;5.55;;
55465;SDS011;41329;41.594;23.810;2022-07-01T01:11:01;6.18;;;5.70;;
55465;SDS011;41329;41.594;23.810;2022-07-01T01:13:28;7.82;;;6.18;;
55465;SDS011;41329;41.594;23.810;2022-07-01T01:15:54;6.63;;;6.13;;
55465;SDS011;41329;41.594;23.810;2022-07-01T01:18:19;6.90;;;6.07;;
55465;SDS011;41329;41.594;23.810;2022-07-01T01:20:45;6.53;;;6.13;;
55465;SDS011;41329;41.594;23.810;2022-07-01T01:23:11;6.55;;;5.95;;
55465;SDS011;41329;41.594;23.810;2022-07-01T01:25:36;6.43;;;5.47;;
55465;SDS011;41329;41.594;23.810;2022-07-01T01:28:02;6.25;;;5.85;;
55465;SDS011;41329;41.594;23.810;2022-07-01T01:30:27;5.97;;;5.55;;
55465;SDS011;41329;41.594;23.810;2022-07-01T01:32:53;6.20;;;5.80;;
55465;SDS011;41329;41.594;23.810;2022-07-01T01:35:19;6.38;;;5.80;;
55465;SDS011;41329;41.594;23.810;2022-07-01T01:37:45;6.25;;;5.65;;
55465;SDS011;41329;41.594;23.810;2022-07-01T01:40:10;8.70;;;6.25;;
55465;SDS011;41329;41.594;23.810;2022-07-01T01:42:39;6.85;;;6.32;;
55465;SDS011;41329;41.594;23.810;2022-07-01T01:45:05;6.90;;;6.43;;
55465;SDS011;41329;41.594;23.810;2022-07-01T01:47:31;8.15;;;6.85;;
55465;SDS011;41329;41.594;23.810;2022-07-01T01:49:57;7.32;;;6.72;;
55465;SDS011;41329;41.594;23.810;2022-07-01T01:52:22;7.75;;;7.15;;
55465;SDS011;41329;41.594;23.810;2022-07-01T01:54:48;7.53;;;6.93;;
55465;SDS011;41329;41.594;23.810;2022-07-01T01:57:13;8.45;;;7.90;;
55465;SDS011;41329;41.594;23.810;2022-07-01T01:59:39;9.18;;;8.57;;
55465;SDS011;41329;41.594;23.810;2022-07-01T02:02:04;9.93;;;9.27;;
55465;SDS011;41329;41.594;23.810;2022-07-01T02:04:30;9.23;;;8.52;;
55465;SDS011;41329;41.594;23.810;2022-07-01T02:06:56;8.98;;;8.45;;
55465;SDS011;41329;41.594;23.810;2022-07-01T02:09:21;8.32;;;7.82;;
55465;SDS011;41329;41.594;23.810;2022-07-01T02:11:47;7.20;;;6.63;;
55465;SDS011;41329;41.594;23.810;2022-07-01T02:14:12;7.88;;;7.18;;
55465;SDS011;41329;41.594;23.810;2022-07-01T02:16:38;7.30;;;6.75;;
55465;SDS011;41329;41.594;23.810;2022-07-01T02:19:03;7.72;;;7.22;;
55465;SDS011;41329;41.594;23.810;2022-07-01T02:21:29;6.57;;;6.18;;
55465;SDS011;41329;41.594;23.810;2022-07-01T02:23:54;8.43;;;7.65;;
55465;SDS011;41329;41.594;23.810;2022-07-01T02:26:20;7.32;;;6.78;;
55465;SDS011;41329;41.594;23.810;2022-07-01T02:28:45;8.55;;;7.78;;
55465;SDS011;41329;41.594;23.810;2022-07-01T02:31:11;7.55;;;7.05;;
55465;SDS011;41329;41.594;23.810;2022-07-01T02:33:36;7.38;;;6.85;;
55465;SDS011;41329;41.594;23.810;2022-07-01T02:36:02;7.47;;;6.88;;
55465;SDS011;41329;41.594;23.810;2022-07-01T02:38:28;7.38;;;6.95;;
55465;SDS011;41329;41.594;23.810;2022-07-01T02:40:53;6.82;;;6.43;;
55465;SDS011;41329;41.594;23.810;2022-07-01T02:43:19;6.65;;;6.13;;
55465;SDS011;41329;41.594;23.810;2022-07-01T02:45:44;6.50;;;6.10;;
55465;SDS011;41329;41.594;23.810;2022-07-01T02:48:10;6.70;;;6.30;;
55465;SDS011;41329;41.594;23.810;2022-07-01T02:50:35;7.13;;;6.72;;
55465;SDS011;41329;41.594;23.810;2022-07-01T02:53:00;7.50;;;6.93;;
55465;SDS011;41329;41.594;23.810;2022-07-01T02:55:26;6.82;;;6.38;;
55465;SDS011;41329;41.594;23.810;2022-07-01T02:57:54;7.63;;;6.90;;
55465;SDS011;41329;41.594;23.810;2022-07-01T03:00:20;8.65;;;7.50;;
55465;SDS011;41329;41.594;23.810;2022-07-01T03:02:46;7.88;;;7.38;;
55465;SDS011;41329;41.594;23.810;2022-07-01T03:05:12;7.93;;;7.32;;
55465;SDS011;41329;41.594;23.810;2022-07-01T03:07:38;8.05;;;7.32;;
55465;SDS011;41329;41.594;23.810;2022-07-01T03:10:04;8.27;;;7.78;;
55465;SDS011;41329;41.594;23.810;2022-07-01T03:12:30;10.00;;;7.30;;
55465;SDS011;41329;41.594;23.810;2022-07-01T03:15:00;8.45;;;7.60;;
55465;SDS011;41329;41.594;23.810;2022-07-01T03:17:31;8.55;;;7.28;;
55465;SDS011;41329;41.594;23.810;2022-07-01T03:19:59;9.55;;;7.90;;
55465;SDS011;41329;41.594;23.810;2022-07-01T03:22:26;8.25;;;7.65;;
55465;SDS011;41329;41.594;23.810;2022-07-01T03:24:53;7.13;;;6.72;;
55465;SDS011;41329;41.594;23.810;2022-07-01T03:27:19;8.23;;;7.45;;
55465;SDS011;41329;41.594;23.810;2022-07-01T03:29:46;7.63;;;7.13;;
55465;SDS011;41329;41.594;23.810;2022-07-01T03:32:12;8.18;;;7.47;;
55465;SDS011;41329;41.594;23.810;2022-07-01T03:34:38;12.52;;;11.63;;
55465;SDS011;41329;41.594;23.810;2022-07-01T03:37:08;13.47;;;12.57;;
55465;SDS011;41329;41.594;23.810;2022-07-01T03:39:35;18.58;;;16.75;;
55465;SDS011;41329;41.594;23.810;2022-07-01T03:42:05;11.25;;;10.43;;
55465;SDS011;41329;41.594;23.810;2022-07-01T03:44:31;9.32;;;8.68;;
55465;SDS011;41329;41.594;23.810;2022-07-01T03:46:57;9.48;;;8.18;;
55465;SDS011;41329;41.594;23.810;2022-07-01T03:49:23;11.90;;;9.60;;
55465;SDS011;41329;41.594;23.810;2022-07-01T03:51:49;15.68;;;13.73;;
55465;SDS011;41329;41.594;23.810;2022-07-01T03:54:14;15.13;;;13.77;;
55465;SDS011;41329;41.594;23.810;2022-07-01T03:56:58;12.02;;;11.02;;
55465;SDS011;41329;41.594;23.810;2022-07-01T03:59:28;10.98;;;10.23;;
55465;SDS011;41329;41.594;23.810;2022-07-01T04:01:55;11.40;;;10.70;;
55465;SDS011;41329;41.594;23.810;2022-07-01T04:04:22;11.30;;;10.65;;
55465;SDS011;41329;41.594;23.810;2022-07-01T04:06:48;10.38;;;9.68;;
55465;SDS011;41329;41.594;23.810;2022-07-01T04:09:15;10.38;;;9.80;;
55465;SDS011;41329;41.594;23.810;2022-07-01T04:11:42;10.65;;;9.85;;
55465;SDS011;41329;41.594;23.810;2022-07-01T04:14:09;10.20;;;9.00;;
55465;SDS011;41329;41.594;23.810;2022-07-01T04:16:35;8.25;;;7.85;;
55465;SDS011;41329;41.594;23.810;2022-07-01T04:19:01;8.98;;;8.48;;
55465;SDS011;41329;41.594;23.810;2022-07-01T04:21:27;8.70;;;8.10;;
55465;SDS011;41329;41.594;23.810;2022-07-01T04:24:11;8.32;;;7.88;;
55465;SDS011;41329;41.594;23.810;2022-07-01T04:26:38;8.27;;;7.75;;
55465;SDS011;41329;41.594;23.810;2022-07-01T04:29:05;7.10;;;6.80;;
55465;SDS011;41329;41.594;23.810;2022-07-01T04:31:38;9.15;;;8.18;;
55465;SDS011;41329;41.594;23.810;2022-07-01T04:34:05;8.68;;;7.88;;
55465;SDS011;41329;41.594;23.810;2022-07-01T04:36:32;8.35;;;7.75;;
55465;SDS011;41329;41.594;23.810;2022-07-01T04:38:58;10.52;;;9.93;;
55465;SDS011;41329;41.594;23.810;2022-07-01T04:41:23;8.70;;;8.25;;
55465;SDS011;41329;41.594;23.810;2022-07-01T04:44:08;9.35;;;8.85;;
55465;SDS011;41329;41.594;23.810;2022-07-01T04:46:34;9.40;;;8.80;;
55465;SDS011;41329;41.594;23.810;2022-07-01T04:49:00;10.88;;;10.15;;
55465;SDS011;41329;41.594;23.810;2022-07-01T04:51:25;9.20;;;8.52;;
55465;SDS011;41329;41.594;23.810;2022-07-01T04:53:51;9.70;;;8.70;;
55465;SDS011;41329;41.594;23.810;2022-07-01T04:56:17;9.77;;;9.18;;
55465;SDS011;41329;41.594;23.810;2022-07-01T04:58:42;12.73;;;9.25;;
55465;SDS011;41329;41.594;23.810;2022-07-01T05:01:08;10.18;;;9.48;;
55465;SDS011;41329;41.594;23.810;2022-07-01T05:03:33;10.43;;;9.77;;
55465;SDS011;41329;41.594;23.810;2022-07-01T05:05:59;9.57;;;9.07;;
55465;SDS011;41329;41.594;23.810;2022-07-01T05:08:24;11.27;;;10.77;;
55465;SDS011;41329;41.594;23.810;2022-07-01T05:10:50;10.77;;;9.95;;
55465;SDS011;41329;41.594;23.810;2022-07-01T05:13:15;10.32;;;9.38;;
55465;SDS011;41329;41.594;23.810;2022-07-01T05:15:41;10.10;;;9.48;;
55465;SDS011;41329;41.594;23.810;2022-07-01T05:18:06;9.18;;;8.60;;
55465;SDS011;41329;41.594;23.810;2022-07-01T05:20:50;10.20;;;9.60;;
55465;SDS011;41329;41.594;23.810;2022-07-01T05:23:34;11.40;;;10.45;;
55465;SDS011;41329;41.594;23.810;2022-07-01T05:26:01;12.45;;;11.45;;
55465;SDS011;41329;41.594;23.810;2022-07-01T05:28:26;10.52;;;9.65;;
55465;SDS011;41329;41.594;23.810;2022-07-01T05:30:52;9.68;;;9.07;;
55465;SDS011;41329;41.594;23.810;2022-07-01T05:33:18;9.23;;;8.52;;
55465;SDS011;41329;41.594;23.810;2022-07-01T05:35:46;9.52;;;8.82;;
55465;SDS011;41329;41.594;23.810;2022-07-01T05:38:12;10.07;;;9.40;;
55465;SDS011;41329;41.594;23.810;2022-07-01T05:40:37;8.82;;;8.43;;
55465;SDS011;41329;41.594;23.810;2022-07-01T05:43:03;10.30;;;9.50;;
55465;SDS011;41329;41.594;23.810;2022-07-01T05:45:28;11.18;;;10.38;;
55465;SDS011;41329;41.594;23.810;2022-07-01T05:47:53;9.32;;;8.73;;
55465;SDS011;41329;41.594;23.810;2022-07-01T05:50:19;9.52;;;8.82;;
55465;SDS011;41329;41.594;23.810;2022-07-01T05:52:45;9.45;;;8.68;;
55465;SDS011;41329;41.594;23.810;2022-07-01T05:55:11;8.95;;;8.55;;
55465;SDS011;41329;41.594;23.810;2022-07-01T05:57:36;11.68;;;8.93;;
55465;SDS011;41329;41.594;23.810;2022-07-01T06:00:03;8.40;;;8.05;;
55465;SDS011;41329;41.594;23.810;2022-07-01T06:02:29;7.85;;;7.30;;
55465;SDS011;41329;41.594;23.810;2022-07-01T06:04:54;8.32;;;7.82;;
55465;SDS011;41329;41.594;23.810;2022-07-01T06:07:20;7.65;;;7.25;;
55465;SDS011;41329;41.594;23.810;2022-07-01T06:09:45;7.97;;;7.30;;
55465;SDS011;41329;41.594;23.810;2022-07-01T06:12:11;10.73;;;7.07;;
55465;SDS011;41329;41.594;23.810;2022-07-01T06:14:36;6.65;;;6.25;;
55465;SDS011;41329;41.594;23.810;2022-07-01T06:17:03;10.38;;;7.68;;
55465;SDS011;41329;41.594;23.810;2022-07-01T06:19:29;7.05;;;6.50;;
55465;SDS011;41329;41.594;23.810;2022-07-01T06:21:55;8.20;;;7.22;;
55465;SDS011;41329;41.594;23.810;2022-07-01T06:24:21;8.70;;;8.05;;
55465;SDS011;41329;41.594;23.810;2022-07-01T06:26:47;8.75;;;8.18;;
55465;SDS011;41329;41.594;23.810;2022-07-01T06:29:13;9.75;;;7.10;;
55465;SDS011;41329;41.594;23.810;2022-07-01T06:31:39;7.90;;;7.22;;
55465;SDS011;41329;41.594;23.810;2022-07-01T06:34:04;7.57;;;7.07;;
55465;SDS011;41329;41.594;23.810;2022-07-01T06:36:30;7.60;;;7.20;;
55465;SDS011;41329;41.594;23.810;2022-07-01T06:38:55;7.18;;;6.78;;
55465;SDS011;41329;41.594;23.810;2022-07-01T06:41:22;7.43;;;6.95;;
55465;SDS011;41329;41.594;23.810;2022-07-01T06:43:53;11.10;;;6.95;;
55465;SDS011;41329;41.594;23.810;2022-07-01T06:46:19;7.18;;;6.68;;
55465;SDS011;41329;41.594;23.810;2022-07-01T06:48:45;6.70;;;6.22;;
55465;SDS011;41329;41.594;23.810;2022-07-01T06:51:10;8.63;;;7.13;;
55465;SDS011;41329;41.594;23.810;2022-07-01T06:53:36;6.50;;;6.13;;
55465;SDS011;41329;41.594;23.810;2022-07-01T06:56:02;7.57;;;6.90;;
55465;SDS011;41329;41.594;23.810;2022-07-01T06:58:28;7.82;;;7.28;;
55465;SDS011;41329;41.594;23.810;2022-07-01T07:00:53;10.98;;;7.35;;
55465;SDS011;41329;41.594;23.810;2022-07-01T07:03:19;6.22;;;5.82;;
55465;SDS011;41329;41.594;23.810;2022-07-01T07:05:44;5.78;;;5.47;;
55465;SDS011;41329;41.594;23.810;2022-07-01T07:08:10;7.18;;;6.68;;
55465;SDS011;41329;41.594;23.810;2022-07-01T07:10:35;7.38;;;6.75;;
55465;SDS011;41329;41.594;23.810;2022-07-01T07:13:01;6.80;;;6.50;;
55465;SDS011;41329;41.594;23.810;2022-07-01T07:15:26;7.22;;;6.82;;
55465;SDS011;41329;41.594;23.810;2022-07-01T07:17:52;7.30;;;6.78;;
55465;SDS011;41329;41.594;23.810;2022-07-01T07:20:19;7.45;;;6.70;;
55465;SDS011;41329;41.594;23.810;2022-07-01T07:22:44;7.15;;;6.60;;
55465;SDS011;41329;41.594;23.810;2022-07-01T07:25:10;6.40;;;6.00;;
55465;SDS011;41329;41.594;23.810;2022-07-01T07:27:35;6.57;;;6.07;;
55465;SDS011;41329;41.594;23.810;2022-07-01T07:30:01;6.57;;;6.00;;
55465;SDS011;41329;41.594;23.810;2022-07-01T07:32:28;6.43;;;5.95;;
55465;SDS011;41329;41.594;23.810;2022-07-01T07:34:53;5.95;;;5.32;;
55465;SDS011;41329;41.594;23.810;2022-07-01T07:37:19;6.22;;;5.72;;
55465;SDS011;41329;41.594;23.810;2022-07-01T07:39:44;5.75;;;5.45;;
55465;SDS011;41329;41.594;23.810;2022-07-01T07:42:10;6.32;;;5.50;;
55465;SDS011;41329;41.594;23.810;2022-07-01T07:44:35;5.80;;;5.43;;
55465;SDS011;41329;41.594;23.810;2022-07-01T07:47:01;5.75;;;5.35;;
55465;SDS011;41329;41.594;23.810;2022-07-01T07:49:26;6.03;;;5.63;;
55465;SDS011;41329;41.594;23.810;2022-07-01T07:51:52;5.60;;;5.20;;
55465;SDS011;41329;41.594;23.810;2022-07-01T07:54:18;5.95;;;5.03;;
55465;SDS011;41329;41.594;23.810;2022-07-01T07:56:43;5.85;;;5.43;;
55465;SDS011;41329;41.594;23.810;2022-07-01T07:59:09;5.95;;;5.47;;
55465;SDS011;41329;41.594;23.810;2022-07-01T08:01:34;5.53;;;5.05;;
55465;SDS011;41329;41.594;23.810;2022-07-01T08:04:00;5.13;;;4.82;;
55465;SDS011;41329;41.594;23.810;2022-07-01T08:06:25;4.60;;;4.30;;
55465;SDS011;41329;41.594;23.810;2022-07-01T08:08:51;5.00;;;4.60;;
55465;SDS011;41329;41.594;23.810;2022-07-01T08:11:17;8.68;;;5.47;;
55465;SDS011;41329;41.594;23.810;2022-07-01T08:13:42;8.00;;;5.40;;
55465;SDS011;41329;41.594;23.810;2022-07-01T08:16:08;5.47;;;5.00;;
55465;SDS011;41329;41.594;23.810;2022-07-01T08:18:34;5.70;;;5.30;;
55465;SDS011;41329;41.594;23.810;2022-07-01T08:21:00;5.05;;;4.55;;
55465;SDS011;41329;41.594;23.810;2022-07-01T08:23:25;4.60;;;4.40;;
55465;SDS011;41329;41.594;23.810;2022-07-01T08:25:50;5.65;;;5.25;;
55465;SDS011;41329;41.594;23.810;2022-07-01T08:28:16;5.13;;;4.72;;
55465;SDS011;41329;41.594;23.810;2022-07-01T08:30:42;4.72;;;4.43;;
55465;SDS011;41329;41.594;23.810;2022-07-01T08:33:08;5.50;;;4.72;;
55465;SDS011;41329;41.594;23.810;2022-07-01T08:35:33;5.20;;;4.90;;
55465;SDS011;41329;41.594;23.810;2022-07-01T08:37:59;5.05;;;4.60;;
55465;SDS011;41329;41.594;23.810;2022-07-01T08:40:28;4.72;;;4.43;;
55465;SDS011;41329;41.594;23.810;2022-07-01T08:42:57;5.00;;;4.35;;
55465;SDS011;41329;41.594;23.810;2022-07-01T08:45:25;5.80;;;4.25;;
55465;SDS011;41329;41.594;23.810;2022-07-01T08:47:52;4.32;;;4.03;;
55465;SDS011;41329;41.594;23.810;2022-07-01T08:50:22;4.63;;;4.25;;
55465;SDS011;41329;41.594;23.810;2022-07-01T08:52:49;4.45;;;3.90;;
55465;SDS011;41329;41.594;23.810;2022-07-01T08:55:14;4.15;;;3.95;;
55465;SDS011;41329;41.594;23.810;2022-07-01T08:57:40;4.35;;;3.53;;
55465;SDS011;41329;41.594;23.810;2022-07-01T09:00:06;4.78;;;3.95;;
55465;SDS011;41329;41.594;23.810;2022-07-01T09:02:52;4.63;;;4.32;;
55465;SDS011;41329;41.594;23.810;2022-07-01T09:05:23;3.80;;;3.58;;
55465;SDS011;41329;41.594;23.810;2022-07-01T09:07:55;3.70;;;3.13;;
55465;SDS011;41329;41.594;23.810;2022-07-01T09:10:24;3.38;;;3.13;;
55465;SDS011;41329;41.594;23.810;2022-07-01T09:12:50;3.83;;;3.50;;
55465;SDS011;41329;41.594;23.810;2022-07-01T09:17:50;4.05;;;3.50;;
55465;SDS011;41329;41.594;23.810;2022-07-01T09:20:40;3.80;;;3.50;;
55465;SDS011;41329;41.594;23.810;2022-07-01T09:23:13;4.10;;;3.70;;
55465;SDS011;41329;41.594;23.810;2022-07-01T09:28:15;5.10;;;3.40;;
55465;SDS011;41329;41.594;23.810;2022-07-01T09:30:43;3.65;;;3.13;;
55465;SDS011;41329;41.594;23.810;2022-07-01T09:33:18;4.10;;;3.67;;
55465;SDS011;41329;41.594;23.810;2022-07-01T09:35:45;3.58;;;3.28;;
55465;SDS011;41329;41.594;23.810;2022-07-01T09:38:12;3.17;;;2.85;;
55465;SDS011;41329;41.594;23.810;2022-07-01T09:46:16;2.70;;;2.50;;
55465;SDS011;41329;41.594;23.810;2022-07-01T09:51:01;3.03;;;2.80;;
55465;SDS011;41329;41.594;23.810;2022-07-01T09:53:28;3.92;;;3.00;;
55465;SDS011;41329;41.594;23.810;2022-07-01T09:55:54;3.25;;;3.03;;
55465;SDS011;41329;41.594;23.810;2022-07-01T09:58:19;2.90;;;2.70;;
55465;SDS011;41329;41.594;23.810;2022-07-01T10:00:45;2.58;;;2.38;;
55465;SDS011;41329;41.594;23.810;2022-07-01T10:03:11;5.18;;;2.80;;
55465;SDS011;41329;41.594;23.810;2022-07-01T10:05:44;3.35;;;3.05;;
55465;SDS011;41329;41.594;23.810;2022-07-01T10:13:40;5.63;;;2.47;;
55465;SDS011;41329;41.594;23.810;2022-07-01T10:16:07;3.17;;;2.60;;
55465;SDS011;41329;41.594;23.810;2022-07-01T10:18:33;2.40;;;2.30;;
55465;SDS011;41329;41.594;23.810;2022-07-01T10:20:59;4.75;;;2.50;;
55465;SDS011;41329;41.594;23.810;2022-07-01T10:23:39;3.45;;;2.28;;
55465;SDS011;41329;41.594;23.810;2022-07-01T10:26:07;3.25;;;2.95;;
55465;SDS011;41329;41.594;23.810;2022-07-01T10:31:07;2.80;;;2.60;;
55465;SDS011;41329;41.594;23.810;2022-07-01T10:33:47;2.90;;;2.70;;
55465;SDS011;41329;41.594;23.810;2022-07-01T10:44:18;4.07;;;2.42;;
55465;SDS011;41329;41.594;23.810;2022-07-01T10:46:48;2.95;;;2.75;;
55465;SDS011;41329;41.594;23.810;2022-07-01T10:52:11;2.70;;;2.50;;
55465;SDS011;41329;41.594;23.810;2022-07-01T10:57:27;3.25;;;2.60;;
55465;SDS011;41329;41.594;23.810;2022-07-01T10:59:54;2.80;;;2.42;;
55465;SDS011;41329;41.594;23.810;2022-07-01T11:02:29;2.75;;;2.58;;
55465;SDS011;41329;41.594;23.810;2022-07-01T11:05:00;3.28;;;2.25;;
55465;SDS011;41329;41.594;23.810;2022-07-01T11:07:32;2.90;;;2.70;;
55465;SDS011;41329;41.594;23.810;2022-07-01T11:09:59;2.88;;;2.70;;
55465;SDS011;41329;41.594;23.810;2022-07-01T11:12:27;2.60;;;2.40;;
55465;SDS011;41329;41.594;23.810;2022-07-01T11:14:54;2.65;;;2.45;;
55465;SDS011;41329;41.594;23.810;2022-07-01T11:17:24;3.25;;;2.40;;
55465;SDS011;41329;41.594;23.810;2022-07-01T11:19:50;4.68;;;2.85;;
55465;SDS011;41329;41.594;23.810;2022-07-01T11:22:23;2.67;;;2.47;;
55465;SDS011;41329;41.594;23.810;2022-07-01T11:25:09;3.15;;;2.17;;
55465;SDS011;41329;41.594;23.810;2022-07-01T11:27:36;2.55;;;2.45;;
55465;SDS011;41329;41.594;23.810;2022-07-01T11:30:07;2.50;;;2.38;;
55465;SDS011;41329;41.594;23.810;2022-07-01T11:32:38;2.97;;;2.78;;
55465;SDS011;41329;41.594;23.810;2022-07-01T11:35:07;2.67;;;2.50;;
55465;SDS011;41329;41.594;23.810;2022-07-01T11:37:52;3.25;;;2.55;;
55465;SDS011;41329;41.594;23.810;2022-07-01T11:40:50;3.38;;;2.70;;
55465;SDS011;41329;41.594;23.810;2022-07-01T11:43:23;2.65;;;2.45;;
55465;SDS011;41329;41.594;23.810;2022-07-01T11:45:50;5.53;;;2.88;;
55465;SDS011;41329;41.594;23.810;2022-07-01T11:48:29;3.17;;;2.53;;
55465;SDS011;41329;41.594;23.810;2022-07-01T11:50:57;2.88;;;2.63;;
55465;SDS011;41329;41.594;23.810;2022-07-01T11:53:24;3.10;;;2.80;;
55465;SDS011;41329;41.594;23.810;2022-07-01T11:55:49;2.70;;;2.53;;
55465;SDS011;41329;41.594;23.810;2022-07-01T11:58:15;3.13;;;2.88;;
55465;SDS011;41329;41.594;23.810;2022-07-01T12:00:40;2.90;;;2.67;;
55465;SDS011;41329;41.594;23.810;2022-07-01T12:03:06;3.20;;;2.95;;
55465;SDS011;41329;41.594;23.810;2022-07-01T12:05:32;4.55;;;4.22;;
55465;SDS011;41329;41.594;23.810;2022-07-01T12:07:59;3.15;;;2.95;;
55465;SDS011;41329;41.594;23.810;2022-07-01T12:10:26;3.00;;;2.78;;
55465;SDS011;41329;41.594;23.810;2022-07-01T12:12:52;3.00;;;2.80;;
55465;SDS011;41329;41.594;23.810;2022-07-01T12:15:17;2.42;;;2.22;;
55465;SDS011;41329;41.594;23.810;2022-07-01T12:17:45;2.60;;;2.42;;
55465;SDS011;41329;41.594;23.810;2022-07-01T12:20:10;3.20;;;3.00;;
55465;SDS011;41329;41.594;23.810;2022-07-01T12:22:36;3.15;;;2.53;;
55465;SDS011;41329;41.594;23.810;2022-07-01T12:25:06;2.90;;;2.70;;
55465;SDS011;41329;41.594;23.810;2022-07-01T12:27:33;2.70;;;2.50;;
55465;SDS011;41329;41.594;23.810;2022-07-01T12:30:00;2.63;;;2.53;;
55465;SDS011;41329;41.594;23.810;2022-07-01T12:32:27;2.72;;;2.53;;
55465;SDS011;41329;41.594;23.810;2022-07-01T12:34:55;3.08;;;2.40;;
55465;SDS011;41329;41.594;23.810;2022-07-01T12:37:25;3.03;;;2.83;;
55465;SDS011;41329;41.594;23.810;2022-07-01T12:42:32;2.85;;;2.65;;
55465;SDS011;41329;41.594;23.810;2022-07-01T12:47:33;3.03;;;2.72;;
55465;SDS011;41329;41.594;23.810;2022-07-01T12:50:18;3.42;;;3.17;;
55465;SDS011;41329;41.594;23.810;2022-07-01T12:52:59;3.50;;;2.92;;
55465;SDS011;41329;41.594;23.810;2022-07-01T12:55:31;3.08;;;2.78;;
55465;SDS011;41329;41.594;23.810;2022-07-01T12:57:59;3.33;;;3.13;;
55465;SDS011;41329;41.594;23.810;2022-07-01T13:00:26;2.88;;;2.67;;
55465;SDS011;41329;41.594;23.810;2022-07-01T13:02:57;3.75;;;3.13;;
55465;SDS011;41329;41.594;23.810;2022-07-01T13:05:24;5.90;;;2.88;;
55465;SDS011;41329;41.594;23.810;2022-07-01T13:07:50;4.82;;;3.30;;
55465;SDS011;41329;41.594;23.810;2022-07-01T13:10:16;2.95;;;2.72;;
55465;SDS011;41329;41.594;23.810;2022-07-01T13:12:42;4.53;;;3.55;;
55465;SDS011;41329;41.594;23.810;2022-07-01T13:15:12;4.20;;;3.17;;
55465;SDS011;41329;41.594;23.810;2022-07-01T13:17:38;3.13;;;3.00;;
55465;SDS011;41329;41.594;23.810;2022-07-01T13:20:04;3.92;;;2.88;;
55465;SDS011;41329;41.594;23.810;2022-07-01T13:22:31;3.03;;;2.83;;
55465;SDS011;41329;41.594;23.810;2022-07-01T13:24:56;4.47;;;3.15;;
55465;SDS011;41329;41.594;23.810;2022-07-01T13:27:22;3.08;;;2.88;;
55465;SDS011;41329;41.594;23.810;2022-07-01T13:29:50;3.13;;;2.92;;
55465;SDS011;41329;41.594;23.810;2022-07-01T13:32:15;2.75;;;2.60;;
55465;SDS011;41329;41.594;23.810;2022-07-01T13:34:41;3.22;;;3.03;;
55465;SDS011;41329;41.594;23.810;2022-07-01T13:37:07;3.83;;;3.38;;
55465;SDS011;41329;41.594;23.810;2022-07-01T13:39:32;3.88;;;3.58;;
55465;SDS011;41329;41.594;23.810;2022-07-01T13:41:58;3.90;;;3.60;;
55465;SDS011;41329;41.594;23.810;2022-07-01T13:44:23;4.18;;;3.88;;
55465;SDS011;41329;41.594;23.810;2022-07-01T13:46:49;4.80;;;4.40;;
55465;SDS011;41329;41.594;23.810;2022-07-01T13:49:14;4.20;;;3.90;;
55465;SDS011;41329;41.594;23.810;2022-07-01T13:51:40;3.88;;;3.67;;
55465;SDS011;41329;41.594;23.810;2022-07-01T13:54:05;4.07;;;3.88;;
55465;SDS011;41329;41.594;23.810;2022-07-01T13:56:31;5.07;;;3.90;;
55465;SDS011;41329;41.594;23.810;2022-07-01T13:58:57;3.55;;;3.30;;
55465;SDS011;41329;41.594;23.810;2022-07-01T14:01:22;3.67;;;3.38;;
55465;SDS011;41329;41.594;23.810;2022-07-01T14:03:48;7.45;;;7.00;;
55465;SDS011;41329;41.594;23.810;2022-07-01T14:06:15;7.53;;;7.13;;
55465;SDS011;41329;41.594;23.810;2022-07-01T14:08:41;5.10;;;4.90;;
55465;SDS011;41329;41.594;23.810;2022-07-01T14:11:06;4.28;;;3.88;;
55465;SDS011;41329;41.594;23.810;2022-07-01T14:13:32;4.10;;;3.80;;
55465;SDS011;41329;41.594;23.810;2022-07-01T14:15:59;3.80;;;3.60;;
55465;SDS011;41329;41.594;23.810;2022-07-01T14:18:25;4.20;;;3.92;;
55465;SDS011;41329;41.594;23.810;2022-07-01T14:20:51;4.72;;;4.32;;
55465;SDS011;41329;41.594;23.810;2022-07-01T14:23:16;3.63;;;3.45;;
55465;SDS011;41329;41.594;23.810;2022-07-01T14:25:42;3.58;;;3.28;;
55465;SDS011;41329;41.594;23.810;2022-07-01T14:28:10;3.47;;;3.17;;
55465;SDS011;41329;41.594;23.810;2022-07-01T14:30:36;3.97;;;3.78;;
55465;SDS011;41329;41.594;23.810;2022-07-01T14:33:01;3.88;;;3.58;;
55465;SDS011;41329;41.594;23.810;2022-07-01T14:35:27;4.88;;;4.10;;
55465;SDS011;41329;41.594;23.810;2022-07-01T14:37:53;3.80;;;3.60;;
55465;SDS011;41329;41.594;23.810;2022-07-01T14:40:18;3.55;;;3.35;;
55465;SDS011;41329;41.594;23.810;2022-07-01T14:42:44;4.10;;;3.90;;
55465;SDS011;41329;41.594;23.810;2022-07-01T14:45:11;6.70;;;4.30;;
55465;SDS011;41329;41.594;23.810;2022-07-01T14:47:39;3.53;;;3.22;;
55465;SDS011;41329;41.594;23.810;2022-07-01T14:50:05;3.30;;;3.10;;
55465;SDS011;41329;41.594;23.810;2022-07-01T14:52:31;3.50;;;3.30;;
55465;SDS011;41329;41.594;23.810;2022-07-01T14:54:57;3.33;;;3.13;;
55465;SDS011;41329;41.594;23.810;2022-07-01T14:57:22;4.57;;;3.33;;
55465;SDS011;41329;41.594;23.810;2022-07-01T14:59:47;3.88;;;3.67;;
55465;SDS011;41329;41.594;23.810;2022-07-01T15:02:13;6.13;;;3.40;;
55465;SDS011;41329;41.594;23.810;2022-07-01T15:04:40;3.65;;;3.35;;
55465;SDS011;41329;41.594;23.810;2022-07-01T15:07:06;3.97;;;3.55;;
55465;SDS011;41329;41.594;23.810;2022-07-01T15:09:31;3.70;;;3.40;;
55465;SDS011;41329;41.594;23.810;2022-07-01T15:11:57;4.05;;;3.85;;